EKRK/RKE METAR and TAF weather

Enter ICAO airport designator
Station Type Date Time Source
EKRK METAR 2022/06/29 00:50 UTC NOAA

EKRK 290050Z AUTO 14002KT 1400 R11/P1500D R29/P1500U BR FEW003/// 14/14 Q1021


Station Type Date Time Source
EKRK Decoded METAR 2022/06/29 00:50 UTC NOAA

Koebenhavn / Roskilde, Denmark (EKRK) 55-35N 012-08E 44M
Jun 28, 2022 - 08:50 PM EDT / 2022.06.29 0050 UTC
Wind: from the SE (140 degrees) at 2 MPH (2 KT):0
Visibility: less than 1 mile:0
Sky conditions: mostly clear
Weather: mist
Temperature: 57 F (14 C)
Dew Point: 57 F (14 C)
Relative Humidity: 100%
Pressure (altimeter): 30.15 in. Hg (1021 hPa)
ob: EKRK 290050Z AUTO 14002KT 1400 R11/P1500D R29/P1500U BR FEW003/// 14/14 Q1021
cycle: 1

Station Type Date Time Source
EKRK TAF 2020/10/13 06:33 UTC NOAA

TAF EKRK 130526Z 1306/1415 09004KT 0200 FG VV001
TEMPO 1306/1307 6000 NSW NSC
BECMG 1307/1309 9999 NSW FEW020

Example: see airport list